Weather observations for the past three days for
Somerset, Somerset-Pulaski County - J.T. Wilson Field Airport
Metric (Imperial)
Date Time (edt) Wind (kph) Vis. (km) Weather Sky Cond. Temperature (ºC) Relative Humidity Wind Chill (°C) Heat Index (°C) Pressure Precipitation (cm)
Air Dwpt 6 hour altimeter (cm) sea level (mb) 1 hr 3 hr 6 hr
Max. Min.
09 09:55 SW 11 16.09 Overcast FEW055 BKN065 OVC075 15 12 82% 75.79 0.0
09 09:35 SW 13 16.09 Mostly Cloudy BKN070 16 12 77% 75.79 0.0
09 09:15 Calm 16.09 Mostly Cloudy BKN075 14 12 88% 75.77 0.0
09 08:55 Vrbl 9 16.09 A Few Clouds FEW075 FEW100 14 11 82% 75.74 0.0
09 08:35 Vrbl 7 16.09 A Few Clouds FEW110 14 11 82% 75.77 0.0
09 08:15 S 7 16.09 Fair CLR 13 11 88% 75.74 0.0
09 07:55 S 9 16.09 A Few Clouds FEW110 13 11 88% 75.74 0.0
09 07:35 S 9 16.09 A Few Clouds FEW110 13 11 88% 75.74 0.0
09 07:15 Vrbl 9 16.09 Fair CLR 13 10 82% 75.74 0.0
09 06:55 S 7 16.09 A Few Clouds FEW120 13 10 82% 75.74 0.0
09 06:35 S 7 16.09 A Few Clouds FEW120 13 10 82% 75.72 0.0
09 06:15 S 7 16.09 Fair CLR 12 11 94% 75.72 0.0
09 05:55 S 7 16.09 Fair CLR 12 10 88% 75.74 0.0
09 05:35 Calm 16.09 Fair CLR 12 11 94% 75.77 0.0
09 05:15 Calm 16.09 Fair CLR 12 9 82% 75.77 0.0
09 04:55 Calm 16.09 Fair CLR 12 9 82% 75.77 0.0
09 04:35 Calm 16.09 Fair CLR 12 9 82% 75.77 0.0
09 04:15 Calm 16.09 Fair CLR 12 9 82% 75.74 0.0
09 03:55 Calm 16.09 Fair CLR 13 8 72% 75.74 0.0
09 03:35 Calm 16.09 Fair CLR 12 8 77% 75.77 0.0
09 03:15 S 7 16.09 Fair CLR 13 8 72% 75.74 0.0
09 02:55 S 7 16.09 Fair CLR 13 8 72% 75.77 0.0
09 02:35 SE 6 16.09 Fair CLR 13 8 72% 75.77 0.0
09 02:15 SE 6 16.09 Fair CLR 13 8 72% 75.79 0.0
09 01:55 Calm 16.09 Fair CLR 14 8 67% 75.82 0.0
09 01:35 Calm 16.09 Fair CLR 14 8 67% 75.82 0.0
09 01:15 Calm 16.09 Fair CLR 13 8 72% 75.79 0.0
09 00:55 Calm 16.09 Fair CLR 13 8 72% 75.82 0.0
09 00:35 S 7 16.09 Fair CLR 14 8 67% 75.79 0.0
09 00:15 S 9 16.09 Fair CLR 14 8 67% 75.82 0.0
08 23:55 Vrbl 7 16.09 Fair CLR 14 8 67% 75.82 0.0
08 23:35 S 6 16.09 Fair CLR 14 8 67% 75.82 0.0
08 23:15 S 9 16.09 Fair CLR 14 8 67% 75.84 0.0
08 22:55 Calm 16.09 Fair CLR 13 7 67% 75.84 0.0
08 22:35 SE 6 16.09 Fair CLR 13 7 67% 75.84 0.0
08 22:15 Calm 16.09 Fair CLR 14 7 63% 75.84 0.0
08 21:55 Calm 16.09 Fair CLR 14 7 63% 75.84 0.0
08 21:35 SE 6 16.09 Fair CLR 15 7 59% 75.82 0.0
08 21:15 SE 6 16.09 Fair CLR 16 6 52% 75.84 0.0
08 20:55 Calm 16.09 Fair CLR 18 5 43% 75.84 0.0
08 20:35 W 6 16.09 Fair CLR 19 4 37% 75.84 0.0
08 20:15 W 7 16.09 Fair CLR 20 3 33% 75.84 0.0
08 19:55 W 9 16.09 Fair CLR 21 3 31% 75.84 0.0
08 19:35 W 13 16.09 Fair CLR 21 2 29% 75.84 0.0
08 19:15 W 13 16.09 Fair CLR 22 2 27% 75.87 0.0
08 18:55 W 17 16.09 Fair CLR 22 2 27% 75.87 0.0
08 18:35 Vrbl 11 G 24 16.09 Fair CLR 22 1 25% 75.87 0.0
08 18:15 SW 13 16.09 Fair CLR 22 2 27% 75.87 0.0
08 17:55 Vrbl 6 G 20 16.09 Fair CLR 22 2 27% 75.87 0.0
08 17:35 S 11 G 20 16.09 Fair CLR 22 2 27% 75.87 0.0
08 17:15 Vrbl 6 G 19 16.09 Fair CLR 22 0 23% 75.9 0.0
08 16:55 Vrbl 9 G 20 16.09 Fair CLR 22 1 25% 75.9 0.0
08 16:35 S 13 16.09 Fair CLR 22 1 25% 75.9 0.0
08 16:15 S 15 G 26 16.09 Fair CLR 22 2 27% 75.92 0.0
08 15:55 SE 17 G 28 16.09 Fair CLR 22 2 27% 75.95 0.0
08 15:35 SW 15 G 30 16.09 Fair CLR 21 2 29% 75.97 0.0
08 15:15 S 13 G 26 16.09 Fair CLR 21 2 29% 76.02 0.0
08 14:55 S 15 16.09 Fair CLR 21 2 29% 76.05 0.0
08 14:35 S 15 G 24 16.09 Fair CLR 21 2 29% 76.07 0.0
08 14:15 S 13 G 22 16.09 Fair CLR 20 1 28% 76.1 0.0
08 13:55 SW 13 G 22 16.09 Fair CLR 20 1 28% 76.12 0.0
08 13:35 Vrbl 9 G 20 16.09 Fair CLR 19 1 30% 76.15 0.0
08 13:15 S 13 16.09 Fair CLR 19 2 32% 76.2 0.0
08 12:55 SW 6 16.09 Fair CLR 19 2 32% 76.23 0.0
08 12:35 Vrbl 9 16.09 Fair CLR 19 3 35% 76.23 0.0
08 12:15 Calm 16.09 Fair CLR 18 3 37% 76.28 0.0
08 11:55 Calm 16.09 Fair CLR 17 5 45% 76.3 0.0
08 11:35 SW 11 G 20 16.09 Fair CLR 17 6 49% 76.3 0.0
08 11:15 S 11 G 20 16.09 Fair CLR 16 6 52% 76.33 0.0
08 10:55 Vrbl 7 16.09 Fair CLR 15 8 63% 76.33 0.0
08 10:35 Vrbl 7 16.09 Fair CLR 14 8 67% 76.33 0.0
08 10:15 Calm 16.09 Fair CLR 13 10 82% 76.35 0.0
08 09:55 Calm 16.09 Fair CLR 12 10 88% 76.33 0.0
08 09:35 Calm 16.09 Fair CLR 9 9 100% 76.33 0.0
08 09:15 Calm 16.09 Fair CLR 8 8 100% 76.33 0.0
08 08:55 Calm 16.09 A Few Clouds FEW002 7 7 100% 76.33 0.0
08 08:35 Calm 4.02 Fog/Mist BKN002 6 6 100% 76.3 0.0
08 08:15 Calm 0.24 Unknown Precip Fog OVC001 5 5 100% 76.3 0.0
08 07:55 Calm 0.24 Fog OVC001 5 5 100% 76.3 0.0
08 07:35 Calm 0.24 Fog OVC001 4 4 100% 76.3 0.0
08 07:15 Calm 0.24 Fog OVC001 3 3 100% 76.25 0.0
08 06:55 Calm 8.05 Fog/Mist CLR 3 3 100% 76.25 0.0
08 06:35 Calm 14.48 Fair CLR 3 3 100% 76.25 0.0
08 06:15 Calm 11.27 Fair CLR 3 3 100% 76.23 0.0
08 05:55 Calm 14.48 Fair CLR 4 4 100% 76.2 0.0
08 05:35 Calm 11.27 Fair CLR 4 4 100% 76.23 0.0
08 05:15 Calm 4.83 Fog/Mist FEW001 4 4 100% 76.23 0.0
08 04:55 Calm 0.24 Fog OVC001 4 4 100% 76.23 0.0
08 04:35 Calm 14.48 Overcast OVC001 4 4 100% 76.23 0.0
08 04:15 Calm 14.48 Mostly Cloudy BKN002 4 4 100% 76.23 0.0
08 03:55 Calm 14.48 A Few Clouds FEW003 4 4 100% 76.2 0.0
08 03:35 Calm 14.48 A Few Clouds FEW003 4 4 100% 76.23 0.0
08 03:15 Calm 14.48 Fair CLR 4 4 100% 76.23 0.0
08 02:55 Calm 11.27 Fair CLR 4 4 100% 76.23 0.0
08 02:35 Calm 14.48 Fair CLR 5 5 100% 76.23 0.0
08 02:15 Calm 16.09 Fair CLR 5 5 100% 76.23 0.0
08 01:55 Calm 16.09 Fair CLR 6 6 100% 76.23 0.0
08 01:35 Calm 16.09 Fair CLR 6 6 100% 76.23 0.0
08 01:15 Calm 16.09 Fair CLR 6 6 100% 76.25 0.0
08 00:55 Calm 16.09 Fair CLR 6 6 100% 76.25 0.0
08 00:35 Calm 16.09 Fair CLR 7 7 100% 76.23 0.0
08 00:15 Calm 16.09 Fair CLR 7 7 100% 76.23 0.0
07 23:55 Calm 16.09 Fair CLR 7 7 100% 76.2 0.0
07 23:35 Calm 16.09 Fair CLR 8 8 100% 76.2 0.0
07 23:15 Calm 16.09 Fair CLR 8 8 100% 76.2 0.0
07 22:55 Calm 16.09 Fair CLR 9 9 100% 76.2 0.0
07 22:35 Calm 16.09 Fair CLR 10 6 76% 76.2 0.0
07 22:15 Calm 16.09 Fair CLR 10 5 71% 76.17 0.0
07 21:55 Calm 16.09 Fair CLR 12 4 58% 76.15 0.0
07 21:35 Calm 16.09 Fair CLR 14 3 48% 76.12 0.0
07 21:15 Calm 16.09 Fair CLR 14 2 44% 76.1 0.0
07 20:55 NE 9 16.09 Fair CLR 14 2 44% 76.07 0.0
07 20:35 NE 9 16.09 Fair CLR 15 2 42% 76.07 0.0
07 20:15 N 9 16.09 Fair CLR 15 2 42% 76.05 0.0
07 19:55 N 11 16.09 Fair CLR 16 2 39% 76.05 0.0
07 19:35 NW 7 G 19 16.09 Fair CLR 17 2 37% 76.05 0.0
07 19:15 NW 9 16.09 Fair CLR 17 2 37% 76.05 0.0
07 18:55 NW 17 16.09 Fair CLR 18 1 32% 76.05 0.0
07 18:35 N 13 16.09 Fair CLR 18 2 34% 76.05 0.0
07 18:15 W 15 G 28 16.09 Fair CLR 18 2 34% 76.05 0.0
07 17:35 NW 17 16.09 Fair CLR 19 2 32% 76.02 0.0
07 17:15 N 11 G 20 16.09 A Few Clouds FEW065 19 2 32% 76.02 0.0
07 16:55 N 11 16.09 A Few Clouds FEW065 19 3 35% 76 0.0
07 16:35 Vrbl 9 G 20 16.09 Fair CLR 18 3 37% 76 0.0
07 16:15 NW 15 G 24 16.09 Fair CLR 18 3 37% 76 0.0
07 15:55 W 17 16.09 A Few Clouds FEW060 19 3 35% 76.02 0.0
07 15:35 W 6 G 22 16.09 Partly Cloudy SCT060 18 3 37% 76.02 0.0
07 15:15 Vrbl 9 16.09 A Few Clouds FEW060 19 5 40% 76.02 0.0
07 14:55 N 13 16.09 Fair CLR 18 4 40% 76.05 0.0
07 14:35 Calm 16.09 Fair CLR 18 4 40% 76.05 0.0
07 14:15 NW 17 16.09 Partly Cloudy SCT050 18 4 40% 76.05 0.0
07 13:55 Vrbl 11 G 22 16.09 Partly Cloudy SCT049 17 5 45% 76.07 0.0
07 13:35 N 9 G 24 16.09 Mostly Cloudy BKN048 16 4 45% 76.1 0.0
07 13:15 Calm 16.09 Partly Cloudy SCT048 16 4 45% 76.1 0.0
07 12:55 NW 17 16.09 A Few Clouds FEW045 17 5 45% 76.1 0.0
07 12:35 N 17 G 26 16.09 Partly Cloudy SCT045 17 6 49% 76.12 0.0
07 12:15 N 17 16.09 Mostly Cloudy BKN044 17 6 49% 76.12 0.0
07 11:55 NE 11 G 26 16.09 Partly Cloudy SCT042 16 6 52% 76.12 0.0
07 11:35 Vrbl 6 G 22 16.09 Partly Cloudy SCT041 14 5 55% 76.12 0.0
07 11:15 NE 13 G 24 16.09 Fair CLR 15 6 55% 76.12 0.0
07 10:55 NE 15 16.09 Fair CLR 15 6 55% 76.1 0.0
07 10:35 Vrbl 11 16.09 Fair CLR 14 7 63% 76.1 0.0
07 10:15 NE 20 16.09 Fair CLR 14 7 63% 76.1 0.0
07 09:55 N 13 G 26 16.09 Fair CLR 14 8 67% 76.1 0.0
07 09:35 NE 13 16.09 Fair CLR 13 8 72% 76.12 0.0
07 09:15 NE 15 16.09 Fair CLR 12 8 77% 76.12 0.0
07 08:55 Vrbl 9 G 20 16.09 Fair CLR 12 10 88% 76.1 0.0
07 08:35 NE 15 16.09 Fair CLR 11 10 94% 76.1 0.0
07 08:15 N 13 16.09 A Few Clouds FEW048 11 10 94% 76.1 0.0
07 07:55 N 15 16.09 Mostly Cloudy BKN047 10 10 100% 8 76.07 0.0
07 07:35 N 9 16.09 Overcast OVC045 10 10 100% 9 76.07 0.0
07 07:15 N 7 16.09 Overcast OVC044 10 10 100% 9 76.07 0.0
07 06:55 N 7 16.09 Overcast OVC044 10 10 100% 9 76.05 0.0
07 06:35 N 9 16.09 Overcast OVC043 10 10 100% 9 76.05 0.0
07 06:15 N 9 16.09 Overcast OVC043 10 10 100% 9 76.02 0.0
07 05:55 N 11 16.09 Overcast OVC044 10 10 100% 9 76.02 0.0
07 05:35 N 9 16.09 Overcast SCT043 OVC110 10 10 100% 9 76 0.0
07 05:15 N 9 16.09 Overcast FEW044 OVC110 11 11 100% 76.02 0.0
07 04:55 N 9 16.09 Overcast BKN043 OVC110 11 11 100% 76.05 0.0
07 04:35 N 7 16.09 Overcast OVC041 11 11 100% 76.05 0.0
07 04:15 N 7 16.09 Overcast OVC040 11 11 100% 76.02 0.0
07 03:55 Calm 16.09 Overcast OVC040 11 11 100% 76.02 0.0
07 03:35 N 7 16.09 Overcast OVC039 11 11 100% 76 0.0
07 03:15 N 7 16.09 Overcast OVC039 11 11 100% 76 0.0
07 02:55 N 7 16.09 Overcast OVC041 11 11 100% 76.02 0.0
07 02:35 NE 6 16.09 Overcast OVC043 12 12 100% 76.02 0.0
07 02:15 N 6 16.09 Overcast OVC042 12 12 100% 76.07 0.0
07 01:55 Calm 16.09 Mostly Cloudy BKN042 BKN120 12 12 100% 76.07 0.0
07 01:35 N 6 16.09 Mostly Cloudy SCT042 BKN050 BKN120 12 12 100% 76.05 0.0
07 01:15 Vrbl 7 16.09 Overcast BKN041 OVC050 12 12 100% 76.05 0.0
07 00:55 Calm 16.09 Overcast OVC039 13 13 100% 76.05 0.0
07 00:35 Calm 16.09 Overcast FEW006 OVC040 13 13 100% 76.07 0.0
07 00:15 Calm 16.09 Overcast SCT005 OVC040 13 13 100% 76.05 0.0
06 23:55 Calm 16.09 Overcast BKN006 OVC036 13 13 100% 76.05 0.0
06 23:35 Calm 16.09 Overcast FEW007 OVC037 13 13 100% 76.07 0.0
06 23:15 Calm 16.09 Overcast SCT033 OVC043 13 13 100% 76.07 0.0
06 22:55 Calm 14.48 Overcast FEW033 OVC040 13 13 100% 76.1 0.0
06 22:35 W 9 16.09 Overcast OVC039 13 13 100% 76.15 0.0
06 22:15 Calm 16.09 Overcast BKN036 OVC042 13 13 100% 76.05 0.0
06 21:55 Calm 16.09 Overcast FEW006 OVC034 13 13 100% 76.02 0.0 0.05
06 21:35 Calm 16.09 Overcast FEW005 BKN034 OVC100 13 13 100% 76.02 0.0
06 21:15 Calm 8.05 Light Rain Fog/Mist FEW005 SCT033 BKN075 13 13 100% 75.92 0.0
06 20:55 Calm 8.05 Light Rain Fog/Mist FEW014 BKN028 OVC038 13 13 100% 76.05 0.0 0.18
06 20:35 W 7 9.66 Light Rain Fog/Mist FEW006 SCT023 BKN027 13 13 100% 76.07 0.0
06 20:15 Calm 9.66 Light Rain Fog/Mist BKN035 13 13 100% 76 0.0
06 19:55 Calm 8.05 Light Rain Fog/Mist FEW028 OVC035 13 13 100% 76 0.0 0.13
06 19:35 W 7 9.66 Light Rain Fog/Mist BKN026 OVC033 13 13 100% 76.05 0.0
06 19:15 Calm 11.27 Light Rain FEW008 SCT025 OVC032 13 13 100% 75.97 0.0
06 18:55 Calm 6.44 Light Rain Fog/Mist SCT009 SCT025 BKN030 13 13 100% 76 0.0 0.03
06 18:35 Calm 16.09 Overcast FEW007 OVC030 13 13 100% 75.97 0.0
06 18:15 Calm 16.09 Light Rain FEW019 BKN028 BKN033 13 13 100% 75.92 0.0
06 17:55 Calm 12.87 Light Rain BKN020 OVC026 13 13 100% 75.97 0.0 0.03
06 17:35 NW 13 14.48 Light Rain FEW013 BKN020 OVC031 13 13 100% 76.02 0.0
06 17:15 NW 7 16.09 Mostly Cloudy FEW010 FEW014 BKN032 14 14 100% 75.95 0.0
06 16:55 Vrbl 7 11.27 Unknown Precip FEW007 FEW019 SCT031 14 14 100% 75.9 0.0 0.03
06 16:35 Vrbl 7 4.83 Light Rain Fog/Mist SCT017 13 13 100% 75.97 0.0
06 16:15 Vrbl 6 3.22 Light Rain Fog/Mist FEW007 BKN015 13 13 100% 75.95 0.0
06 15:55 N 7 4.83 Unknown Precip Fog/Mist SCT007 SCT012 13 13 100% 76 0.0 0.03
06 15:35 N 9 11.27 Unknown Precip FEW007 SCT016 14 14 100% 75.97 0.0
06 15:15 Vrbl 9 3.22 Light Rain Fog/Mist FEW006 SCT015 13 13 100% 75.97 0.0
06 14:55 N 9 4.83 Unknown Precip Fog/Mist FEW013 13 13 100% 75.97 0.0 0.03
06 14:35 N 7 2.01 Unknown Precip Fog/Mist SCT012 13 13 100% 75.95 0.0
06 14:15 Vrbl 6 4.02 Unknown Precip Fog/Mist FEW005 FEW013 12 12 100% 75.97 0.0
06 13:55 N 7 1.61 Light Rain Fog/Mist CLR 13 13 100% 75.95 0.0
06 13:35 N 6 1.61 Unknown Precip Fog/Mist CLR 12 12 100% 75.95 0.0
06 13:15 N 7 1.61 Unknown Precip Fog/Mist SCT004 SCT013 12 12 100% 75.95 0.0
06 12:55 NW 7 2.01 Unknown Precip Fog/Mist SCT007 SCT013 12 12 100% 75.92 0.0
06 12:35 Vrbl 9 4.83 Unknown Precip Fog/Mist BKN006 BKN013 13 13 100% 75.92 0.0
06 12:15 N 11 14.48 Mostly Cloudy BKN006 13 13 100% 75.92 0.0
06 11:55 N 7 6.44 Light Rain Fog/Mist FEW006 13 13 100% 75.92 0.0 0.03
06 11:35 Vrbl 9 4.83 Unknown Precip Fog/Mist SCT005 SCT013 13 13 100% 75.9 0.0
06 11:15 N 11 3.22 Unknown Precip Fog/Mist BKN005 BKN013 13 13 100% 75.87 0.0
06 10:55 N 11 12.87 Light Rain BKN004 OVC007 13 13 100% 75.84 0.0 0.08
06 10:35 NW 15 6.44 Light Rain Fog/Mist OVC006 14 14 100% 75.82 0.0
06 10:15 Vrbl 11 14.48 Light Rain BKN006 OVC036 14 14 100% 75.82 0.0
Date Time (edt) Wind (kph) Vis. (km) Weather Sky Cond. Air Dwpt Max. Min. Relative Humidity Wind Chill (°C) Heat Index (°C) altimeter (cm) sea level (mb) 1 hr 3 hr 6 hr
6 hour
Temperature (ºC) Pressure Precipitation (cm)